createdAt,value
2022-11-20T00:00:38.990Z,4.81
2022-11-20T00:01:40.504Z,4.82
2022-11-20T00:02:41.883Z,4.85
2022-11-20T00:03:43.678Z,4.85
2022-11-20T00:04:45.446Z,4.85
2022-11-20T00:05:46.898Z,4.88
2022-11-20T00:06:48.250Z,4.90
2022-11-20T00:07:49.623Z,4.90
2022-11-20T00:08:50.996Z,4.91
2022-11-20T00:09:52.351Z,4.91
2022-11-20T00:10:53.684Z,4.90
2022-11-20T00:11:55.033Z,4.91
2022-11-20T00:12:56.353Z,4.94
2022-11-20T00:13:58.524Z,4.91
2022-11-20T00:14:59.883Z,4.89
2022-11-20T00:16:02.243Z,4.88
2022-11-20T00:17:03.572Z,4.87
2022-11-20T00:18:04.925Z,4.88
2022-11-20T00:19:06.309Z,4.85
2022-11-20T00:20:07.841Z,4.80
2022-11-20T00:21:14.340Z,4.78
2022-11-20T00:22:15.679Z,4.78
2022-11-20T00:23:17.035Z,4.83
2022-11-20T00:24:18.352Z,4.89
2022-11-20T00:25:19.698Z,4.91
2022-11-20T00:26:21.651Z,4.88
2022-11-20T00:27:23.003Z,4.86
2022-11-20T00:28:24.398Z,4.82
2022-11-20T00:29:25.736Z,4.84
2022-11-20T00:30:27.062Z,4.83
2022-11-20T00:31:28.853Z,4.79
2022-11-20T00:32:30.508Z,4.79
2022-11-20T00:33:32.064Z,4.77
2022-11-20T00:34:34.102Z,4.79
2022-11-20T00:35:35.459Z,4.86
2022-11-20T00:36:36.790Z,4.88
2022-11-20T00:37:38.158Z,4.89
2022-11-20T00:38:39.492Z,4.92
2022-11-20T00:39:40.874Z,4.92
2022-11-20T00:40:42.186Z,4.93
2022-11-20T00:41:43.552Z,4.93
2022-11-20T00:42:44.874Z,4.91
2022-11-20T00:43:46.252Z,4.90
2022-11-20T00:44:47.708Z,4.90
2022-11-20T00:45:49.059Z,4.92
2022-11-20T00:46:50.390Z,4.93
2022-11-20T00:47:51.703Z,4.96
2022-11-20T00:48:53.342Z,4.96
2022-11-20T00:49:54.662Z,4.96
2022-11-20T00:50:56.106Z,4.97
2022-11-20T00:51:57.463Z,4.96
2022-11-20T00:52:58.789Z,4.97
2022-11-20T00:54:00.155Z,4.97
2022-11-20T00:55:01.620Z,4.99
2022-11-20T00:56:07.445Z,5.01
2022-11-20T00:57:08.771Z,5.01
2022-11-20T00:58:14.106Z,5.01
2022-11-20T00:59:15.854Z,5.02
2022-11-20T01:00:17.274Z,5.05
2022-11-20T01:01:18.741Z,5.06
2022-11-20T01:02:20.163Z,5.06
2022-11-20T01:03:26.629Z,5.06
2022-11-20T01:04:29.089Z,5.07
2022-11-20T01:05:34.725Z,5.06
2022-11-20T01:06:37.309Z,5.06
2022-11-20T01:07:38.930Z,5.07
2022-11-20T01:08:40.703Z,5.09
2022-11-20T01:09:42.384Z,5.09
2022-11-20T01:10:43.725Z,5.10
2022-11-20T01:11:45.414Z,5.10
2022-11-20T01:12:46.798Z,5.11
2022-11-20T01:13:49.344Z,5.09
2022-11-20T01:14:50.752Z,5.09
2022-11-20T01:15:52.214Z,5.10
2022-11-20T01:16:53.572Z,5.08
2022-11-20T01:17:54.972Z,5.05
2022-11-20T01:18:57.613Z,5.05
2022-11-20T01:19:59.038Z,5.02
2022-11-20T01:21:04.413Z,5.01
2022-11-20T01:22:05.791Z,5.01
2022-11-20T01:23:07.390Z,5.02
2022-11-20T01:24:10.923Z,5.04
2022-11-20T01:25:12.392Z,5.06
2022-11-20T01:26:15.430Z,5.05
2022-11-20T01:27:16.980Z,5.03
2022-11-20T01:28:18.337Z,5.08
2022-11-20T01:29:22.461Z,5.07
2022-11-20T01:30:24.136Z,5.10
2022-11-20T01:31:26.721Z,5.08
2022-11-20T01:32:28.082Z,5.06
2022-11-20T01:33:29.490Z,5.08
2022-11-20T01:34:30.885Z,5.08
2022-11-20T01:35:32.303Z,5.08
2022-11-20T01:36:34.520Z,5.11
2022-11-20T01:37:35.900Z,5.09
2022-11-20T01:38:37.585Z,5.10
2022-11-20T01:39:38.919Z,5.10
2022-11-20T01:40:40.287Z,5.11
2022-11-20T01:41:42.027Z,5.12
2022-11-20T01:42:52.741Z,5.19
2022-11-20T01:43:54.152Z,5.20
2022-11-20T01:44:55.517Z,5.19
2022-11-20T01:45:58.809Z,5.18
2022-11-20T01:47:02.711Z,5.15
2022-11-20T01:48:04.223Z,5.14
2022-11-20T01:49:11.592Z,5.15
2022-11-20T01:50:16.160Z,5.13
2022-11-20T01:51:20.535Z,5.12
2022-11-20T01:52:24.161Z,5.13
2022-11-20T01:53:27.983Z,5.13
2022-11-20T01:54:35.535Z,5.18
2022-11-20T01:55:42.417Z,5.21
2022-11-20T01:56:45.177Z,5.20
2022-11-20T01:57:49.135Z,5.20
2022-11-20T01:58:54.063Z,5.21
2022-11-20T01:59:58.063Z,5.23
2022-11-20T02:00:59.562Z,5.23
2022-11-20T02:02:01.108Z,5.27
2022-11-20T02:03:04.809Z,5.26
2022-11-20T02:04:08.146Z,5.27
2022-11-20T02:05:15.688Z,5.28
2022-11-20T02:06:31.926Z,5.29
2022-11-20T02:07:33.406Z,5.30
2022-11-20T02:08:34.867Z,5.30
2022-11-20T02:09:36.236Z,5.27
2022-11-20T02:10:37.569Z,5.26
2022-11-20T02:11:38.969Z,5.27
2022-11-20T02:12:40.398Z,5.28
2022-11-20T02:13:42.064Z,5.30
2022-11-20T02:14:43.442Z,5.31
2022-11-20T02:15:45.208Z,5.32
2022-11-20T02:16:47.614Z,5.34
2022-11-20T02:17:49.443Z,5.33
2022-11-20T02:18:51.634Z,5.34
2022-11-20T02:19:53.103Z,5.35
2022-11-20T02:20:59.746Z,5.35
2022-11-20T02:22:10.126Z,5.38
2022-11-20T02:23:21.313Z,5.40
2022-11-20T02:24:23.562Z,5.44
2022-11-20T02:25:26.231Z,5.45
2022-11-20T02:26:28.795Z,5.45
2022-11-20T02:27:30.454Z,5.46
2022-11-20T02:28:32.017Z,5.46
2022-11-20T02:29:42.690Z,5.51
2022-11-20T02:30:44.134Z,5.52
2022-11-20T02:31:45.895Z,5.54
2022-11-20T02:32:47.290Z,5.54
2022-11-20T02:33:48.631Z,5.56
2022-11-20T02:34:50.013Z,5.57
2022-11-20T02:35:51.418Z,5.57
2022-11-20T02:36:53.085Z,5.57
2022-11-20T02:37:55.776Z,5.57
2022-11-20T02:38:57.196Z,5.58
2022-11-20T02:39:58.584Z,5.60
2022-11-20T02:40:59.949Z,5.60
2022-11-20T02:42:01.687Z,5.61
2022-11-20T02:43:03.068Z,5.60
2022-11-20T02:44:05.166Z,5.62
2022-11-20T02:45:06.997Z,5.65
2022-11-20T02:46:08.911Z,5.66
2022-11-20T02:47:10.451Z,5.66
2022-11-20T02:48:11.814Z,5.68
2022-11-20T02:49:13.158Z,5.68
2022-11-20T02:50:14.534Z,5.68
2022-11-20T02:51:15.916Z,5.69
2022-11-20T02:52:17.253Z,5.69
2022-11-20T02:53:18.652Z,5.70
2022-11-20T02:54:20.037Z,5.68
2022-11-20T02:55:21.414Z,5.69
2022-11-20T02:56:22.794Z,5.74
2022-11-20T02:57:24.196Z,5.73
2022-11-20T02:58:25.539Z,5.73
2022-11-20T02:59:26.926Z,5.73
2022-11-20T03:00:28.427Z,5.75
2022-11-20T03:01:29.822Z,5.75
2022-11-20T03:02:31.571Z,5.73
2022-11-20T03:03:32.995Z,5.73
2022-11-20T03:04:34.340Z,5.73
2022-11-20T03:05:35.702Z,5.76
2022-11-20T03:06:37.077Z,5.77
2022-11-20T03:07:38.477Z,5.78
2022-11-20T03:08:39.843Z,5.79
2022-11-20T03:09:41.156Z,5.77
2022-11-20T03:10:42.491Z,5.77
2022-11-20T03:11:43.908Z,5.73
2022-11-20T03:12:45.287Z,5.80
2022-11-20T03:13:46.787Z,5.78
2022-11-20T03:14:52.876Z,5.79
2022-11-20T03:15:54.727Z,5.80
2022-11-20T03:16:56.523Z,5.83
2022-11-20T03:17:57.905Z,5.81
2022-11-20T03:18:59.569Z,5.82
2022-11-20T03:20:00.975Z,5.83
2022-11-20T03:21:02.407Z,5.83
2022-11-20T03:22:03.872Z,5.82
2022-11-20T03:23:05.223Z,5.84
2022-11-20T03:24:07.148Z,5.81
2022-11-20T03:25:08.805Z,5.80
2022-11-20T03:26:10.131Z,5.82
2022-11-20T03:27:11.481Z,5.83
2022-11-20T03:28:12.885Z,5.79
2022-11-20T03:29:14.299Z,5.78
2022-11-20T03:30:15.699Z,5.79
2022-11-20T03:31:18.209Z,5.78
2022-11-20T03:32:19.606Z,5.80
2022-11-20T03:33:21.115Z,5.79
2022-11-20T03:34:22.897Z,5.82
2022-11-20T03:35:25.921Z,5.81
2022-11-20T03:36:28.159Z,5.83
2022-11-20T03:37:31.441Z,5.84
2022-11-20T03:38:33.136Z,5.84
2022-11-20T03:39:34.465Z,5.82
2022-11-20T03:40:35.861Z,5.81
2022-11-20T03:41:38.738Z,5.80
2022-11-20T03:42:40.097Z,5.83
2022-11-20T03:43:41.489Z,5.82
2022-11-20T03:44:42.832Z,5.82
2022-11-20T03:45:44.197Z,5.83
2022-11-20T03:46:45.606Z,5.83
2022-11-20T03:47:47.038Z,5.85
2022-11-20T03:48:51.862Z,5.89
2022-11-20T03:49:53.545Z,5.89
2022-11-20T03:51:07.386Z,5.87
2022-11-20T03:52:08.753Z,5.86
2022-11-20T03:53:10.112Z,5.88
2022-11-20T03:54:11.510Z,5.87
2022-11-20T03:55:12.894Z,5.82
2022-11-20T03:56:15.872Z,5.84
2022-11-20T03:57:17.225Z,5.84
2022-11-20T03:58:18.598Z,5.82
2022-11-20T03:59:20.172Z,5.83
2022-11-20T04:00:21.843Z,5.89
2022-11-20T04:01:24.537Z,5.89
2022-11-20T04:02:25.943Z,5.90
2022-11-20T04:03:27.324Z,5.90
2022-11-20T04:04:28.691Z,5.88
2022-11-20T04:05:30.111Z,5.89
2022-11-20T04:06:34.466Z,5.87
2022-11-20T04:07:35.985Z,5.88
2022-11-20T04:08:37.561Z,5.89
2022-11-20T04:09:38.908Z,5.89
2022-11-20T04:10:40.323Z,5.88
2022-11-20T04:11:41.702Z,5.87
2022-11-20T04:12:43.178Z,5.88
2022-11-20T04:13:47.246Z,5.87
2022-11-20T04:14:48.664Z,5.86
2022-11-20T04:15:50.041Z,5.87
2022-11-20T04:16:51.516Z,5.84
2022-11-20T04:17:52.867Z,5.85
2022-11-20T04:18:54.905Z,5.86
2022-11-20T04:19:56.307Z,5.85
2022-11-20T04:20:58.161Z,5.83
2022-11-20T04:21:59.520Z,5.86
2022-11-20T04:23:00.898Z,5.83
2022-11-20T04:24:02.612Z,5.81
2022-11-20T04:25:04.140Z,5.81
2022-11-20T04:26:06.898Z,5.81
2022-11-20T04:27:08.278Z,5.81
2022-11-20T04:28:10.366Z,5.82
2022-11-20T04:29:12.400Z,5.79
2022-11-20T04:30:13.884Z,5.80
2022-11-20T04:31:17.150Z,5.79
2022-11-20T04:32:18.532Z,5.79
2022-11-20T04:33:19.938Z,5.78
2022-11-20T04:34:21.294Z,5.79
2022-11-20T04:35:22.616Z,5.81
2022-11-20T04:36:25.953Z,5.79
2022-11-20T04:37:27.470Z,5.76
2022-11-20T04:38:29.141Z,5.75
2022-11-20T04:39:30.468Z,5.73
2022-11-20T04:40:31.841Z,5.71
2022-11-20T04:41:35.778Z,5.72
2022-11-20T04:42:37.173Z,5.72
2022-11-20T04:43:38.606Z,5.71
2022-11-20T04:44:40.063Z,5.70
2022-11-20T04:45:41.424Z,5.69
2022-11-20T04:46:43.258Z,5.72
2022-11-20T04:47:44.829Z,5.73
2022-11-20T04:48:46.646Z,5.74
2022-11-20T04:49:48.177Z,5.76
2022-11-20T04:50:49.610Z,5.76
2022-11-20T04:51:53.749Z,5.77
2022-11-20T04:52:55.155Z,5.75
2022-11-20T04:53:56.601Z,5.75
2022-11-20T04:54:58.031Z,5.75
2022-11-20T04:56:17.944Z,5.74
2022-11-20T04:57:19.863Z,5.72
2022-11-20T04:58:21.245Z,5.71
2022-11-20T04:59:22.997Z,5.69
2022-11-20T05:00:25.165Z,5.71
2022-11-20T05:01:26.691Z,5.72
2022-11-20T05:02:28.117Z,5.71
2022-11-20T05:03:29.630Z,5.72
2022-11-20T05:04:30.942Z,5.68
2022-11-20T05:05:32.614Z,5.73
2022-11-20T05:06:34.281Z,5.74
2022-11-20T05:07:35.657Z,5.74
2022-11-20T05:08:37.076Z,5.74
2022-11-20T05:09:38.566Z,5.72
2022-11-20T05:10:39.956Z,5.75
2022-11-20T05:11:41.311Z,5.75
2022-11-20T05:12:42.694Z,5.74
2022-11-20T05:13:44.279Z,5.75
2022-11-20T05:14:45.929Z,5.78
2022-11-20T05:15:47.377Z,5.76
2022-11-20T05:16:48.813Z,5.74
2022-11-20T05:17:50.857Z,5.73
2022-11-20T05:18:53.206Z,5.73
2022-11-20T05:19:54.564Z,5.73
2022-11-20T05:20:56.826Z,5.72
2022-11-20T05:21:58.234Z,5.73
2022-11-20T05:22:59.723Z,5.74
2022-11-20T05:24:01.058Z,5.74
2022-11-20T05:25:02.430Z,5.73
2022-11-20T05:26:04.333Z,5.75
2022-11-20T05:27:05.706Z,5.75
2022-11-20T05:28:07.035Z,5.77
2022-11-20T05:29:10.336Z,5.77
2022-11-20T05:30:12.061Z,5.77
2022-11-20T05:31:14.916Z,5.78
2022-11-20T05:32:16.241Z,5.78
2022-11-20T05:33:17.807Z,5.76
2022-11-20T05:34:19.206Z,5.78
2022-11-20T05:35:20.571Z,5.77
2022-11-20T05:36:21.967Z,5.77
2022-11-20T05:37:23.369Z,5.76
2022-11-20T05:38:24.683Z,5.76
2022-11-20T05:39:26.124Z,5.76
2022-11-20T05:40:27.470Z,5.77
2022-11-20T05:41:28.866Z,5.77
2022-11-20T05:42:33.232Z,5.77
2022-11-20T05:43:38.478Z,5.79
2022-11-20T05:44:40.337Z,5.78
2022-11-20T05:45:41.679Z,5.79
2022-11-20T05:46:43.077Z,5.79
2022-11-20T05:47:44.462Z,5.80
2022-11-20T05:48:46.381Z,5.81
2022-11-20T05:49:47.763Z,5.82
2022-11-20T05:50:49.120Z,5.81
2022-11-20T05:51:50.463Z,5.81
2022-11-20T05:52:51.891Z,5.79
2022-11-20T05:53:53.425Z,5.77
2022-11-20T05:54:54.767Z,5.78
2022-11-20T05:56:03.437Z,5.81
2022-11-20T05:57:04.760Z,5.82
2022-11-20T05:58:06.105Z,5.86
2022-11-20T05:59:07.520Z,5.85
2022-11-20T06:00:09.104Z,5.86
2022-11-20T06:01:10.476Z,5.84
2022-11-20T06:02:11.912Z,5.84
2022-11-20T06:03:13.575Z,5.84
2022-11-20T06:04:14.945Z,5.88
2022-11-20T06:05:16.412Z,5.88
2022-11-20T06:06:18.574Z,5.89
2022-11-20T06:07:20.001Z,5.95
2022-11-20T06:08:21.367Z,5.96
2022-11-20T06:09:23.032Z,5.93
2022-11-20T06:10:24.579Z,5.94
2022-11-20T06:11:26.177Z,5.95
2022-11-20T06:12:27.521Z,5.94
2022-11-20T06:13:28.979Z,5.95
2022-11-20T06:14:30.465Z,5.92
2022-11-20T06:15:31.829Z,5.92
2022-11-20T06:16:33.256Z,5.90
2022-11-20T06:17:34.618Z,5.90
2022-11-20T06:18:36.171Z,5.90
2022-11-20T06:19:37.501Z,5.90
2022-11-20T06:20:42.064Z,5.91
2022-11-20T06:21:43.732Z,5.90
2022-11-20T06:22:45.184Z,5.90
2022-11-20T06:23:46.951Z,5.91
2022-11-20T06:24:48.374Z,5.93
2022-11-20T06:25:49.726Z,5.92
2022-11-20T06:26:51.049Z,5.93
2022-11-20T06:27:52.710Z,5.93
2022-11-20T06:28:54.609Z,5.93
2022-11-20T06:29:55.960Z,5.94
2022-11-20T06:30:57.503Z,5.94
2022-11-20T06:31:58.825Z,5.97
2022-11-20T06:33:00.188Z,5.99
2022-11-20T06:34:02.308Z,5.98
2022-11-20T06:35:03.810Z,5.97
2022-11-20T06:36:10.329Z,5.98
2022-11-20T06:37:12.144Z,5.98
2022-11-20T06:38:13.509Z,5.99
2022-11-20T06:39:14.882Z,5.99
2022-11-20T06:40:16.352Z,6.01
2022-11-20T06:41:19.448Z,6.00
2022-11-20T06:42:20.813Z,6.03
2022-11-20T06:43:22.802Z,6.02
2022-11-20T06:44:24.416Z,6.02
2022-11-20T06:45:25.806Z,6.00
2022-11-20T06:46:27.124Z,6.01
2022-11-20T06:47:28.462Z,6.00
2022-11-20T06:48:30.194Z,6.00
2022-11-20T06:49:31.555Z,5.99
2022-11-20T06:50:33.112Z,5.99
2022-11-20T06:51:34.505Z,5.98
2022-11-20T06:52:40.788Z,5.98
2022-11-20T06:53:44.815Z,6.01
2022-11-20T06:54:46.160Z,6.02
2022-11-20T06:55:47.831Z,6.00
2022-11-20T06:56:49.221Z,6.04
2022-11-20T06:57:55.772Z,6.03
2022-11-20T06:58:57.300Z,6.06
2022-11-20T06:59:58.672Z,6.07
2022-11-20T07:01:00.524Z,6.07
2022-11-20T07:02:01.944Z,6.13
2022-11-20T07:03:10.267Z,6.11
2022-11-20T07:04:18.156Z,6.12
2022-11-20T07:05:19.540Z,6.07
2022-11-20T07:06:20.962Z,6.11
2022-11-20T07:07:22.538Z,6.11
2022-11-20T07:08:24.116Z,6.10
2022-11-20T07:09:25.545Z,6.09
2022-11-20T07:10:27.112Z,6.09
2022-11-20T07:11:28.439Z,6.10
2022-11-20T07:12:29.849Z,6.09
2022-11-20T07:13:31.442Z,6.09
2022-11-20T07:14:32.858Z,6.11
2022-11-20T07:15:34.627Z,6.10
2022-11-20T07:16:35.968Z,6.12
2022-11-20T07:17:37.321Z,6.12
2022-11-20T07:18:38.796Z,6.12
2022-11-20T07:19:40.144Z,6.14
2022-11-20T07:20:41.574Z,6.16
2022-11-20T07:21:43.207Z,6.19
2022-11-20T07:22:44.538Z,6.21
2022-11-20T07:23:45.910Z,6.23
2022-11-20T07:24:47.602Z,6.26
2022-11-20T07:25:49.043Z,6.27
2022-11-20T07:26:50.431Z,6.28
2022-11-20T07:27:51.993Z,6.28
2022-11-20T07:28:53.318Z,6.28
2022-11-20T07:29:54.734Z,6.28
2022-11-20T07:30:56.213Z,6.30
2022-11-20T07:31:57.551Z,6.31
2022-11-20T07:32:59.002Z,6.33
2022-11-20T07:34:00.524Z,6.35
2022-11-20T07:35:01.904Z,6.34
2022-11-20T07:36:03.359Z,6.37
2022-11-20T07:37:10.098Z,6.37
2022-11-20T07:38:12.413Z,6.43
2022-11-20T07:39:13.810Z,6.42
2022-11-20T07:40:15.784Z,6.42
2022-11-20T07:41:17.815Z,6.43
2022-11-20T07:42:19.236Z,6.41
2022-11-20T07:43:20.676Z,6.43
2022-11-20T07:44:22.258Z,6.42
2022-11-20T07:45:24.765Z,6.45
2022-11-20T07:46:26.221Z,6.44
2022-11-20T07:47:27.754Z,6.48
2022-11-20T07:48:29.108Z,6.48
2022-11-20T07:49:30.493Z,6.47
2022-11-20T07:50:31.852Z,6.47
2022-11-20T07:51:33.179Z,6.46
2022-11-20T07:52:34.600Z,6.46
2022-11-20T07:53:36.112Z,6.44
2022-11-20T07:54:37.482Z,6.46
2022-11-20T07:55:38.844Z,6.47
2022-11-20T07:56:40.199Z,6.47
2022-11-20T07:57:41.676Z,6.46
2022-11-20T07:58:43.085Z,6.47
2022-11-20T07:59:44.378Z,6.50
2022-11-20T08:00:45.788Z,6.50
2022-11-20T08:01:47.167Z,6.50
2022-11-20T08:02:48.514Z,6.50
2022-11-20T08:03:49.938Z,6.51
2022-11-20T08:04:51.278Z,6.52
2022-11-20T08:05:52.671Z,6.54
2022-11-20T08:06:54.064Z,6.56
2022-11-20T08:08:01.310Z,6.60
2022-11-20T08:09:06.482Z,6.61
2022-11-20T08:10:09.076Z,6.65
2022-11-20T08:11:12.662Z,6.67
2022-11-20T08:12:19.285Z,6.67
2022-11-20T08:13:22.761Z,6.68
2022-11-20T08:14:28.606Z,6.72
2022-11-20T08:15:40.098Z,6.74
2022-11-20T08:16:48.948Z,6.78
2022-11-20T08:18:15.305Z,6.81
2022-11-20T08:19:17.282Z,6.89
2022-11-20T08:20:18.672Z,6.93
2022-11-20T08:21:21.035Z,6.97
2022-11-20T08:22:24.719Z,7.02
2022-11-20T08:23:26.098Z,7.06
2022-11-20T08:24:27.427Z,7.12
2022-11-20T08:25:29.534Z,7.14
2022-11-20T08:26:30.949Z,7.14
2022-11-20T08:27:32.607Z,7.13
2022-11-20T08:28:34.004Z,7.15
2022-11-20T08:29:35.543Z,7.19
2022-11-20T08:30:37.454Z,7.19
2022-11-20T08:31:38.992Z,7.21
2022-11-20T08:32:40.355Z,7.22
2022-11-20T08:33:41.667Z,7.26
2022-11-20T08:34:43.036Z,7.24
2022-11-20T08:35:44.391Z,7.27
2022-11-20T08:36:45.820Z,7.35
2022-11-20T08:37:50.122Z,7.34
2022-11-20T08:38:52.817Z,7.31
2022-11-20T08:39:55.956Z,7.32
2022-11-20T08:41:01.312Z,7.34
2022-11-20T08:42:02.688Z,7.35
2022-11-20T08:43:04.296Z,7.36
2022-11-20T08:44:11.082Z,7.35
2022-11-20T08:45:12.545Z,7.32
2022-11-20T08:46:17.388Z,7.32
2022-11-20T08:47:19.016Z,7.31
2022-11-20T08:48:20.399Z,7.38
2022-11-20T08:49:22.152Z,7.40
2022-11-20T08:50:24.220Z,7.35
2022-11-20T08:51:26.015Z,7.37
2022-11-20T08:52:38.462Z,7.32
2022-11-20T08:53:41.136Z,7.31
2022-11-20T08:54:42.575Z,7.32
2022-11-20T08:55:46.435Z,7.32
2022-11-20T08:56:48.124Z,7.29
2022-11-20T08:57:51.025Z,7.32
2022-11-20T08:59:18.313Z,7.34
2022-11-20T09:00:17.247Z,7.32
2022-11-20T09:01:22.163Z,7.35
2022-11-20T09:02:23.961Z,7.36
2022-11-20T09:03:29.974Z,7.36
2022-11-20T09:04:53.421Z,7.38
2022-11-20T09:05:58.535Z,7.44
2022-11-20T09:07:01.021Z,7.44
2022-11-20T09:08:02.640Z,7.46
2022-11-20T09:09:06.936Z,7.45
2022-11-20T09:10:25.031Z,7.47
2022-11-20T09:11:26.732Z,7.47
2022-11-20T09:12:28.062Z,7.50
2022-11-20T09:13:29.825Z,7.49
2022-11-20T09:14:31.565Z,7.48
2022-11-20T09:15:33.212Z,7.50
2022-11-20T09:16:34.556Z,7.46
2022-11-20T09:17:36.098Z,7.45
2022-11-20T09:18:37.654Z,7.46
2022-11-20T09:19:39.067Z,7.44
2022-11-20T09:20:40.456Z,7.45
2022-11-20T09:21:41.924Z,7.47
2022-11-20T09:22:43.362Z,7.48
2022-11-20T09:23:47.335Z,7.50
2022-11-20T09:24:48.770Z,7.51
2022-11-20T09:25:50.201Z,7.53
2022-11-20T09:26:51.584Z,7.54
2022-11-20T09:27:59.607Z,7.55
2022-11-20T09:29:04.336Z,7.55
2022-11-20T09:30:06.100Z,7.53
2022-11-20T09:31:16.985Z,7.51
2022-11-20T09:32:18.379Z,7.49
2022-11-20T09:33:19.784Z,7.47
2022-11-20T09:34:21.246Z,7.47
2022-11-20T09:35:22.774Z,7.45
2022-11-20T09:36:24.127Z,7.47
2022-11-20T09:37:25.621Z,7.48
2022-11-20T09:38:27.444Z,7.50
2022-11-20T09:39:28.830Z,7.54
2022-11-20T09:40:30.427Z,7.52
2022-11-20T09:41:34.836Z,7.52
2022-11-20T09:43:05.572Z,7.53
2022-11-20T09:44:06.908Z,7.57
2022-11-20T09:45:11.374Z,7.61
2022-11-20T09:46:12.740Z,7.62
2022-11-20T09:47:14.121Z,7.61
2022-11-20T09:48:27.847Z,7.62
2022-11-20T09:49:38.392Z,7.61
2022-11-20T09:50:56.907Z,7.66
2022-11-20T09:51:59.565Z,7.69
2022-11-20T09:53:17.073Z,7.67
2022-11-20T09:54:18.498Z,7.68
2022-11-20T09:55:20.264Z,7.68
2022-11-20T09:56:22.977Z,7.66
2022-11-20T09:57:28.016Z,7.68
2022-11-20T09:58:34.501Z,7.70
2022-11-20T09:59:54.417Z,7.71
2022-11-20T10:00:57.920Z,7.74
2022-11-20T10:02:00.196Z,7.72
2022-11-20T10:03:07.847Z,7.79
2022-11-20T10:04:20.467Z,7.78
2022-11-20T10:05:42.871Z,7.76
2022-11-20T10:07:30.725Z,7.76
2022-11-20T10:08:45.207Z,7.81
2022-11-20T10:09:57.345Z,7.79
2022-11-20T10:11:15.560Z,7.77
2022-11-20T10:12:26.070Z,7.85
2022-11-20T10:13:47.373Z,7.86
2022-11-20T10:14:48.776Z,7.83
2022-11-20T10:16:02.406Z,7.86
2022-11-20T10:17:07.334Z,7.80
2022-11-20T10:18:12.167Z,7.76
2022-11-20T10:19:39.285Z,7.79
2022-11-20T10:20:46.781Z,7.73
2022-11-20T10:21:48.205Z,7.72
2022-11-20T10:23:01.845Z,7.72
2022-11-20T10:24:06.240Z,7.69
2022-11-20T10:25:14.433Z,7.68
2022-11-20T10:26:35.049Z,7.64
2022-11-20T10:27:55.007Z,7.64
2022-11-20T10:29:11.949Z,7.74
2022-11-20T10:30:14.997Z,7.70
2022-11-20T10:31:26.341Z,7.71
2022-11-20T10:32:32.149Z,7.70
2022-11-20T10:34:10.453Z,7.73
2022-11-20T10:35:14.643Z,7.73
2022-11-20T10:36:22.104Z,7.74
2022-11-20T10:37:25.251Z,7.74
2022-11-20T10:38:29.818Z,7.70
2022-11-20T10:39:37.658Z,7.68
2022-11-20T10:40:44.103Z,7.75
2022-11-20T10:41:47.110Z,7.73
2022-11-20T10:42:53.178Z,7.73
2022-11-20T10:44:01.318Z,7.75
2022-11-20T10:45:21.244Z,7.83
2022-11-20T10:46:23.605Z,7.84
2022-11-20T10:47:26.350Z,7.80
2022-11-20T10:48:28.472Z,7.72
2022-11-20T10:49:31.710Z,7.66
2022-11-20T10:50:34.244Z,7.61
2022-11-20T10:51:41.135Z,7.55
2022-11-20T10:52:52.193Z,7.53
2022-11-20T10:54:06.083Z,7.53
2022-11-20T10:55:27.786Z,7.54
2022-11-20T10:56:39.844Z,7.56
2022-11-20T10:57:52.978Z,7.54
2022-11-20T10:59:00.174Z,7.49
2022-11-20T11:00:03.465Z,7.47
2022-11-20T11:01:05.987Z,7.53
2022-11-20T11:02:16.596Z,7.52
2022-11-20T11:03:27.048Z,7.48
2022-11-20T11:04:28.427Z,7.49
2022-11-20T11:05:45.891Z,7.46
2022-11-20T11:06:48.786Z,7.52
2022-11-20T11:07:51.718Z,7.52
2022-11-20T11:08:54.471Z,7.50
2022-11-20T11:09:56.544Z,7.49
2022-11-20T11:10:59.841Z,7.47
2022-11-20T11:12:06.773Z,7.52
2022-11-20T11:13:08.662Z,7.54
2022-11-20T11:14:14.666Z,7.57
2022-11-20T11:15:36.275Z,7.59
2022-11-20T11:16:42.041Z,7.64
2022-11-20T11:17:49.539Z,7.68
2022-11-20T11:18:51.410Z,7.72
2022-11-20T11:20:08.266Z,7.70
2022-11-20T11:21:09.937Z,7.75
2022-11-20T11:22:17.605Z,7.78
2022-11-20T11:23:29.470Z,7.79
2022-11-20T11:24:46.250Z,7.84
2022-11-20T11:25:57.022Z,7.87
2022-11-20T11:27:00.156Z,7.97
2022-11-20T11:28:03.329Z,8.05
2022-11-20T11:29:05.067Z,8.07
2022-11-20T11:30:14.089Z,8.12
2022-11-20T11:31:23.260Z,8.20
2022-11-20T11:32:24.656Z,8.31
2022-11-20T11:33:27.548Z,8.43
2022-11-20T11:34:28.985Z,8.48
2022-11-20T11:35:30.328Z,8.57
2022-11-20T11:36:33.345Z,8.55
2022-11-20T11:37:35.873Z,8.65
2022-11-20T11:38:39.716Z,8.73
2022-11-20T11:39:43.016Z,8.81
2022-11-20T11:40:44.916Z,8.85
2022-11-20T11:41:46.714Z,8.92
2022-11-20T11:42:53.684Z,8.86
2022-11-20T11:43:56.310Z,8.85
2022-11-20T11:44:59.152Z,8.86
2022-11-20T11:46:01.269Z,8.85
2022-11-20T11:47:03.560Z,8.87
2022-11-20T11:48:09.169Z,8.90
2022-11-20T11:49:10.535Z,8.86
2022-11-20T11:50:11.956Z,8.86
2022-11-20T11:51:20.836Z,8.82
2022-11-20T11:52:23.877Z,8.74
2022-11-20T11:53:28.204Z,8.68
2022-11-20T11:54:48.493Z,8.64
2022-11-20T11:55:57.616Z,8.58
2022-11-20T11:57:04.499Z,8.53
2022-11-20T11:58:12.120Z,8.50
2022-11-20T11:59:21.830Z,8.47
2022-11-20T12:00:23.725Z,8.51
2022-11-20T12:01:43.808Z,8.45
2022-11-20T12:02:45.179Z,8.38
2022-11-20T12:03:53.531Z,8.40
2022-11-20T12:04:57.926Z,8.35
2022-11-20T12:06:02.370Z,8.34
2022-11-20T12:07:44.307Z,8.35
2022-11-20T12:08:48.281Z,8.39
2022-11-20T12:09:52.757Z,8.55
2022-11-20T12:10:56.943Z,8.61
2022-11-20T12:12:11.256Z,8.69
2022-11-20T12:13:12.594Z,8.76
2022-11-20T12:14:19.893Z,8.83
2022-11-20T12:15:30.305Z,8.91
2022-11-20T12:16:36.183Z,8.93
2022-11-20T12:17:37.583Z,8.93
2022-11-20T12:18:39.966Z,8.88
2022-11-20T12:19:41.686Z,8.85
2022-11-20T12:20:46.652Z,8.84
2022-11-20T12:22:03.277Z,8.74
2022-11-20T12:23:10.913Z,8.66
2022-11-20T12:24:15.397Z,8.65
2022-11-20T12:25:21.258Z,8.60
2022-11-20T12:26:31.611Z,8.57
2022-11-20T12:27:32.966Z,8.57
2022-11-20T12:28:42.825Z,8.60
2022-11-20T12:29:51.158Z,8.64
2022-11-20T12:31:15.587Z,8.69
2022-11-20T12:32:16.991Z,8.79
2022-11-20T12:33:36.870Z,8.86
2022-11-20T12:34:38.252Z,8.87
2022-11-20T12:35:51.616Z,8.91
2022-11-20T12:36:59.758Z,8.95
2022-11-20T12:38:21.721Z,8.98
2022-11-20T12:39:28.998Z,8.98
2022-11-20T12:40:30.415Z,8.92
2022-11-20T12:41:46.782Z,8.97
2022-11-20T12:42:53.299Z,8.98
2022-11-20T12:44:03.781Z,8.99
2022-11-20T12:45:16.319Z,8.96
2022-11-20T12:46:17.740Z,9.01
2022-11-20T12:47:32.638Z,9.03
2022-11-20T12:48:49.391Z,9.05
2022-11-20T12:49:50.720Z,9.04
2022-11-20T12:51:15.556Z,9.05
2022-11-20T12:52:25.790Z,9.06
2022-11-20T12:53:55.188Z,9.12
2022-11-20T12:55:15.259Z,9.05
2022-11-20T12:56:25.621Z,9.03
2022-11-20T12:57:27.088Z,9.02
2022-11-20T12:58:34.276Z,9.02
2022-11-20T12:59:51.083Z,9.01
2022-11-20T13:01:15.340Z,8.98
2022-11-20T13:02:19.763Z,9.01
2022-11-20T13:03:39.840Z,9.01
2022-11-20T13:04:53.507Z,8.96
2022-11-20T13:06:06.242Z,9.00
2022-11-20T13:07:10.889Z,9.04
2022-11-20T13:08:20.552Z,9.00
2022-11-20T13:09:23.817Z,9.03
2022-11-20T13:10:33.994Z,9.07
2022-11-20T13:11:35.382Z,9.13
2022-11-20T13:12:45.196Z,9.13
2022-11-20T13:13:46.536Z,9.14
2022-11-20T13:14:51.540Z,9.16
2022-11-20T13:15:57.022Z,9.17
2022-11-20T13:17:02.030Z,9.17
2022-11-20T13:18:09.290Z,9.11
2022-11-20T13:19:12.704Z,9.11
2022-11-20T13:20:16.839Z,9.11
2022-11-20T13:21:19.874Z,9.11
2022-11-20T13:22:43.028Z,9.12
2022-11-20T13:23:44.568Z,9.13
2022-11-20T13:24:51.189Z,9.14
2022-11-20T13:26:03.841Z,9.14
2022-11-20T13:27:14.129Z,9.16
2022-11-20T13:28:15.437Z,9.16
2022-11-20T13:29:20.067Z,9.15
2022-11-20T13:30:22.475Z,9.13
2022-11-20T13:31:32.009Z,9.13
2022-11-20T13:32:33.492Z,9.18
2022-11-20T13:33:36.285Z,9.17
2022-11-20T13:34:37.703Z,9.09
2022-11-20T13:35:43.052Z,9.07
2022-11-20T13:36:57.752Z,9.03
2022-11-20T13:38:04.921Z,9.01
2022-11-20T13:39:06.439Z,9.00
2022-11-20T13:40:10.532Z,9.02
2022-11-20T13:41:11.968Z,9.12
2022-11-20T13:42:13.292Z,9.09
2022-11-20T13:43:17.900Z,9.08
2022-11-20T13:44:38.038Z,9.11
2022-11-20T13:45:39.403Z,9.11
2022-11-20T13:46:42.545Z,9.10
2022-11-20T13:47:49.252Z,9.07
2022-11-20T13:48:51.742Z,9.07
2022-11-20T13:49:54.348Z,9.05
2022-11-20T13:51:12.187Z,9.01
2022-11-20T13:52:19.437Z,9.00
2022-11-20T13:53:29.583Z,8.95
2022-11-20T13:54:30.914Z,8.93
2022-11-20T13:55:38.887Z,8.93
2022-11-20T13:56:57.200Z,8.92
2022-11-20T13:58:04.473Z,8.92
2022-11-20T13:59:13.582Z,9.01
2022-11-20T14:00:21.182Z,9.00
2022-11-20T14:01:24.867Z,9.06
2022-11-20T14:02:28.313Z,9.10
2022-11-20T14:04:59.582Z,9.04
2022-11-20T14:06:12.648Z,9.02
2022-11-20T14:07:14.207Z,8.92
2022-11-20T14:08:22.878Z,8.95
2022-11-20T14:09:29.014Z,8.92
2022-11-20T14:10:32.435Z,8.91
2022-11-20T14:11:34.025Z,8.82
2022-11-20T14:12:35.372Z,8.76
2022-11-20T14:13:36.791Z,8.80
2022-11-20T14:14:47.920Z,8.80